메인 페이지
METAR-TAF:

METAR-TAF

공항 :

Punta Arenas, 칠레

위도: 53-00S, 경도: 070-51W, 고도: 37m

현재 날씨관측

예보는 32분 전, 18:05시(UTC)에 발표되었습니다.
남서21kt, 순간 최대 풍속 36kt
온도 -1°C
습도 69%
기압 999 hPa
시정: 9000m
고도 1600ft 상공 구름 보통
날린눈

METAR: SCCI 221805Z 23021G36KT 9000 BLSN SCT016 M01/M06 Q0999 NOSIG

시각: 14:37 (18:37 UTC)

예보

예보는 20분 전, 18:17시(UTC)에 발표되었습니다.
예보 대상 시간: 22일 18시부터 23일 18시까지 (UTC)
남서15kt, 순간 최대 풍속 25kt
시정: 9000m
고도 2000ft 상공 구름 보통
확률 40% :
일시적
22일 18시부터 22일 22시까지 (UTC)
남서25kt, 순간 최대 풍속 40kt
시정: 2500m
고도 600ft 상공 구름 보통
고도 1100ft 상공 구름 많음
소낙눈
전환 중
23일 04시부터 23일 06시까지 (UTC)
서남서15kt, 순간 최대 풍속 25kt
시정 10km 이상
전환 중
23일 08시부터 23일 10시까지 (UTC)
고도 3000ft 상공 구름 조금
전환 중
23일 16시부터 23일 18시까지 (UTC)
15kt
시정: 9000m
고도 2500ft 상공 구름 보통

TAF: SCCI 221817Z 2218/2318 22015G25KT 9000 SCT020 TNM03/2306Z TX02/2316Z PROB40 TEMPO 2218/2222 22025G40KT 2500 SHSN SCT006 BKN011 BECMG 2304/2306 24015G25KT 9999 NSW BECMG 2308/2310 FEW030 BECMG 2316/2318 28015KT 9000 SCT025

4,000개 이상의 공항 관측 자료 및 예보 (METAR 및 TAF 보고).

지도상에서 검색 가능한 기상관측소가 노란 점과 빨간 점으로 표시되어 있습니다.

기상관측소 명을 보려면 표시 위로 마우스를 이동하세요.

날씨 관측과 예보를 보려면 클릭하세요.

지도 변경 : 확대하려면 엑스 표시가 있는 녹색 버튼, 축소하려면 빼기 표시가 있는 녹색 버튼, 다음 페이지의 지도를 보려면 녹색 화살표를 클릭하세요.


METAR-TAF: